Time;durP1;ratioP1;P1;durP2;ratioP2;P2;SDS_P1;SDS_P2;PMS_P1;PMS_P2;Temp;Humidity;BMP_temperature;BMP_pressure;BME280_temperature;BME280_humidity;BME280_pressure;Samples;Min_cycle;Max_cycle;Signal;HPM_P1;HPM_P2
2022/04/10 00:02:22;;;;;;;7.78;3.80;;;;;;;6.77;65.12;100688.94;5087016;28;20433;-80
2022/04/10 00:04:47;;;;;;;5.43;2.90;;;;;;;6.78;65.17;100679.81;5074468;28;21099;-80
2022/04/10 00:07:12;;;;;;;3.87;3.13;;;;;;;6.77;65.32;100691.63;5084920;28;20408;-80
2022/04/10 00:09:38;;;;;;;4.10;2.70;;;;;;;6.59;65.12;100682.59;5088740;28;20484;-80
2022/04/10 00:12:03;;;;;;;4.37;3.27;;;;;;;6.57;65.84;100682.81;5085611;28;20403;-80
2022/04/10 00:14:29;;;;;;;3.37;3.00;;;;;;;6.56;65.72;100683.00;5097831;28;20393;-80
2022/04/10 00:16:56;;;;;;;7.87;3.03;;;;;;;6.56;65.29;100685.72;5086530;28;20433;-78
2022/04/10 00:19:22;;;;;;;4.55;2.90;;;;;;;6.52;66.07;100684.50;5090494;28;20901;-81
2022/04/10 00:21:48;;;;;;;8.05;3.00;;;;;;;6.39;66.55;100685.34;5081570;28;20404;-81
2022/04/10 00:24:13;;;;;;;3.47;3.13;;;;;;;6.33;66.92;100688.91;5077036;28;20902;-78
2022/04/10 00:26:38;;;;;;;3.67;3.20;;;;;;;6.31;67.09;100692.84;5077439;28;20486;-81
2022/04/10 00:29:04;;;;;;;5.80;3.50;;;;;;;6.36;67.10;100687.63;5085495;28;20465;-78
2022/04/10 00:31:29;;;;;;;4.03;2.93;;;;;;;6.34;67.35;100681.66;5078691;28;20418;-81
2022/04/10 00:33:54;;;;;;;5.10;3.10;;;;;;;6.34;66.93;100687.88;5090728;28;20417;-78
2022/04/10 00:36:20;;;;;;;4.53;3.22;;;;;;;6.25;67.75;100687.28;5073620;28;20415;-80
2022/04/10 00:38:45;;;;;;;5.03;3.20;;;;;;;6.26;67.80;100680.84;5085915;28;20453;-80
2022/04/10 00:41:10;;;;;;;5.50;3.37;;;;;;;6.23;67.38;100686.66;5070310;28;20392;-80
2022/04/10 00:43:38;;;;;;;4.63;3.13;;;;;;;6.21;67.75;100685.22;5074129;28;20415;-80
2022/04/10 00:46:04;;;;;;;5.53;3.50;;;;;;;6.25;67.91;100683.75;5089817;28;20746;-78
2022/04/10 00:48:29;;;;;;;3.83;3.37;;;;;;;6.26;67.77;100690.78;5075739;28;20399;-81
2022/04/10 00:53:41;;;;;;;5.85;3.00;;;;;;;6.13;68.34;100688.94;5089497;28;20513;-80
2022/04/10 00:56:07;;;;;;;4.95;2.80;;;;;;;6.05;68.27;100683.81;5088131;28;20485;-80
2022/04/10 00:58:32;;;;;;;4.90;3.30;;;;;;;6.03;68.65;100693.94;5074639;28;20383;-80
2022/04/10 01:00:57;;;;;;;3.60;2.90;;;;;;;5.97;68.40;100702.00;5083083;28;20481;-80
2022/04/10 01:03:23;;;;;;;3.08;2.72;;;;;;;5.93;69.03;100695.41;5093247;28;20811;-80
2022/04/10 01:05:48;;;;;;;6.20;3.30;;;;;;;5.98;68.32;100692.91;5094171;28;20390;-80
2022/04/10 01:08:14;;;;;;;4.80;3.03;;;;;;;5.86;68.82;100699.97;5077887;28;20382;-80
2022/04/10 01:10:41;;;;;;;3.90;3.13;;;;;;;5.81;69.10;100711.31;5086701;28;20451;-80
2022/04/10 01:13:07;;;;;;;6.22;3.90;;;;;;;5.73;69.34;100714.19;5092531;28;20407;-80
2022/04/10 01:15:32;;;;;;;5.97;3.10;;;;;;;5.76;69.13;100706.53;5078292;28;20962;-80
2022/04/10 01:17:58;;;;;;;3.37;2.67;;;;;;;5.76;68.93;100703.84;5087913;28;20814;-80
2022/04/10 01:20:23;;;;;;;4.10;3.10;;;;;;;5.74;68.87;100699.72;5091955;28;20402;-80
2022/04/10 01:22:49;;;;;;;4.15;2.90;;;;;;;5.73;69.09;100712.34;5092977;28;20493;-80
2022/04/10 01:25:14;;;;;;;5.07;3.42;;;;;;;5.66;69.34;100713.41;5088396;28;20422;-80
2022/04/10 01:27:40;;;;;;;3.93;3.23;;;;;;;5.65;69.36;100711.72;5091638;28;20402;-80
2022/04/10 01:30:08;;;;;;;4.10;3.35;;;;;;;5.60;69.82;100714.19;5075196;28;20798;-80
2022/04/10 01:32:34;;;;;;;4.18;3.38;;;;;;;5.51;69.95;100720.81;5085343;28;20406;-79
2022/04/10 01:35:01;;;;;;;4.70;3.10;;;;;;;5.48;70.14;100719.38;5093331;28;20746;-80
2022/04/10 01:37:28;;;;;;;5.18;3.85;;;;;;;5.53;70.23;100713.38;5092158;28;20386;-80
2022/04/10 01:39:54;;;;;;;4.47;3.20;;;;;;;5.51;69.70;100720.81;5077510;28;20401;-80
2022/04/10 01:42:19;;;;;;;4.70;3.65;;;;;;;5.51;70.09;100716.25;5086236;28;20410;-80
2022/04/10 01:44:44;;;;;;;3.83;3.07;;;;;;;5.51;70.14;100721.63;5082367;28;20383;-80
2022/04/10 01:47:10;;;;;;;3.50;3.07;;;;;;;5.49;69.95;100726.41;5081499;28;20392;-80
2022/04/10 01:49:36;;;;;;;4.07;3.03;;;;;;;5.49;70.46;100720.19;5086327;28;20769;-80
2022/04/10 01:52:01;;;;;;;4.38;2.83;;;;;;;5.57;70.22;100726.19;5091176;28;20405;-80
2022/04/10 01:54:27;;;;;;;4.43;3.07;;;;;;;5.60;70.02;100722.25;5081096;28;20404;-80
2022/04/10 01:56:52;;;;;;;4.63;3.17;;;;;;;5.63;70.01;100721.88;5088915;28;20480;-80
2022/04/10 01:59:17;;;;;;;4.85;2.97;;;;;;;5.67;69.49;100726.63;5075502;28;20390;-80
2022/04/10 02:01:43;;;;;;;4.90;3.07;;;;;;;5.73;69.94;100719.56;5084864;28;20402;-80
2022/04/10 02:04:08;;;;;;;6.43;3.47;;;;;;;5.80;69.24;100715.03;5090129;28;20869;-80
2022/04/10 02:06:34;;;;;;;4.07;3.50;;;;;;;5.86;68.77;100716.09;5087685;28;20418;-80
2022/04/10 02:08:59;;;;;;;4.97;3.40;;;;;;;5.84;69.08;100715.44;5076541;28;20387;-80
2022/04/10 02:11:25;;;;;;;3.97;3.63;;;;;;;5.82;69.33;100710.28;5090909;28;20437;-80
2022/04/10 02:13:50;;;;;;;5.63;3.70;;;;;;;5.83;68.79;100713.81;5083110;28;20450;-80
2022/04/10 02:16:17;;;;;;;3.60;3.30;;;;;;;5.85;69.02;100709.88;5085054;28;20435;-80
2022/04/10 02:18:43;;;;;;;6.28;4.03;;;;;;;5.78;68.90;100702.81;5080858;28;20404;-80
2022/04/10 02:21:09;;;;;;;4.37;3.17;;;;;;;5.69;69.58;100703.06;5077463;28;20437;-80
2022/04/10 02:23:34;;;;;;;3.90;3.10;;;;;;;5.53;70.07;100708.00;5072441;28;20859;-80
2022/04/10 02:26:00;;;;;;;4.80;3.40;;;;;;;5.43;70.33;100703.03;5084063;28;20410;-80
2022/04/10 02:28:26;;;;;;;8.30;3.70;;;;;;;5.46;70.48;100707.19;5077158;28;20895;-80
2022/04/10 02:30:51;;;;;;;4.30;3.63;;;;;;;5.42;70.04;100706.75;5091401;28;20410;-80
2022/04/10 02:33:16;;;;;;;6.25;3.55;;;;;;;5.43;70.06;100699.53;5088670;28;21010;-79
2022/04/10 02:35:43;;;;;;;4.67;3.77;;;;;;;5.36;70.19;100701.38;5080907;28;20434;-79
2022/04/10 02:38:08;;;;;;;5.18;3.78;;;;;;;5.32;70.38;100700.94;5086998;28;21298;-80
2022/04/10 02:40:34;;;;;;;3.97;3.30;;;;;;;5.34;70.54;100711.47;5071332;28;20530;-80
2022/04/10 02:42:59;;;;;;;4.57;3.65;;;;;;;5.32;70.44;100710.88;5079191;28;20734;-80
2022/04/10 02:45:25;;;;;;;5.37;3.87;;;;;;;5.09;71.31;100714.75;5089322;28;20406;-80
2022/04/10 02:47:50;;;;;;;3.95;3.30;;;;;;;5.05;71.47;100718.88;5076349;28;20444;-79
2022/04/10 02:50:15;;;;;;;4.60;3.70;;;;;;;5.01;71.32;100711.41;5072687;28;20486;-80
2022/04/10 02:52:41;;;;;;;5.87;3.97;;;;;;;4.98;71.41;100715.34;5091325;28;20409;-80
2022/04/10 02:55:07;;;;;;;3.73;3.27;;;;;;;4.94;71.75;100711.41;5080341;28;20409;-80
2022/04/10 02:57:33;;;;;;;6.38;3.28;;;;;;;4.90;71.59;100710.16;5071855;28;20402;-80
2022/04/10 02:59:58;;;;;;;5.30;3.13;;;;;;;4.73;72.08;100711.53;5089579;28;20390;-78
2022/04/10 03:02:23;;;;;;;3.37;3.07;;;;;;;4.77;72.11;100714.66;5083538;28;20402;-80
2022/04/10 03:04:49;;;;;;;4.13;3.80;;;;;;;4.76;72.33;100711.13;5080168;28;20390;-80
2022/04/10 03:07:14;;;;;;;4.60;3.30;;;;;;;4.82;72.00;100710.31;5071839;28;20402;-80
2022/04/10 03:09:39;;;;;;;5.73;4.20;;;;;;;4.80;71.66;100715.09;5088006;28;20386;-80
2022/04/10 03:12:05;;;;;;;5.15;3.40;;;;;;;4.76;72.33;100707.63;5083128;28;20412;-80
2022/04/10 03:14:30;;;;;;;3.63;3.33;;;;;;;4.66;72.26;100716.06;5089748;28;20911;-78
2022/04/10 03:16:57;;;;;;;4.73;3.20;;;;;;;4.62;72.37;100725.53;5089309;28;20386;-80
2022/04/10 03:19:22;;;;;;;5.30;3.15;;;;;;;4.52;72.55;100728.56;5075035;28;20472;-80
2022/04/10 03:21:47;;;;;;;4.17;3.40;;;;;;;4.53;72.96;100730.25;5085255;28;20390;-80
2022/04/10 03:24:12;;;;;;;5.53;3.40;;;;;;;4.61;72.75;100731.94;5076275;28;20401;-80
2022/04/10 03:26:38;;;;;;;4.37;3.50;;;;;;;4.69;72.68;100729.91;5081504;28;20546;-80
2022/04/10 03:29:03;;;;;;;4.40;3.17;;;;;;;4.75;72.51;100738.19;5074357;28;20471;-80
2022/04/10 03:31:28;;;;;;;3.55;3.15;;;;;;;4.71;72.46;100741.25;5087511;28;20414;-79
2022/04/10 03:33:53;;;;;;;5.17;3.70;;;;;;;4.70;72.83;100739.63;5086666;28;20809;-79
2022/04/10 03:36:19;;;;;;;7.90;3.60;;;;;;;4.81;72.40;100743.56;5070002;28;20439;-79
2022/04/10 03:38:44;;;;;;;4.77;3.30;;;;;;;4.81;72.58;100750.81;5080554;28;20409;-79
2022/04/10 03:41:09;;;;;;;6.57;3.90;;;;;;;4.84;72.56;100753.09;5084169;28;20420;-79
2022/04/10 03:43:35;;;;;;;4.32;3.50;;;;;;;4.88;72.39;100751.66;5071491;28;20395;-78
2022/04/10 03:46:01;;;;;;;4.60;3.33;;;;;;;5.08;71.90;100755.25;5085444;28;20879;-79
2022/04/10 03:48:27;;;;;;;4.10;3.30;;;;;;;5.13;71.36;100759.00;5079953;28;20423;-79
2022/04/10 03:50:52;;;;;;;5.67;3.70;;;;;;;5.18;71.27;100755.69;5076622;28;20460;-79
2022/04/10 03:53:18;;;;;;;4.27;3.40;;;;;;;5.23;70.68;100754.06;5078976;28;20405;-79
2022/04/10 03:55:44;;;;;;;3.87;3.47;;;;;;;5.27;70.69;100759.03;5085804;28;20394;-79
2022/04/10 03:58:09;;;;;;;4.38;3.13;;;;;;;5.29;70.34;100760.47;5081780;28;20393;-79
2022/04/10 04:00:35;;;;;;;4.33;3.63;;;;;;;5.28;70.39;100766.88;5091207;28;20398;-79
2022/04/10 04:03:00;;;;;;;8.63;6.70;;;;;;;5.30;70.68;100758.63;5087549;28;20873;-79
2022/04/10 04:05:25;;;;;;;6.53;4.17;;;;;;;5.30;70.55;100766.69;5084991;28;20987;-79
2022/04/10 04:07:51;;;;;;;5.20;3.90;;;;;;;5.31;70.26;100762.94;5071077;28;20387;-79
2022/04/10 04:10:16;;;;;;;4.77;3.53;;;;;;;5.31;69.93;100761.09;5082916;28;20404;-79
2022/04/10 04:12:41;;;;;;;5.03;3.80;;;;;;;5.35;70.21;100767.72;5081207;28;20892;-79
2022/04/10 04:15:07;;;;;;;5.80;3.90;;;;;;;5.38;70.36;100774.53;5086572;28;20415;-79
2022/04/10 04:17:33;;;;;;;4.30;3.87;;;;;;;5.43;70.61;100775.63;5070974;28;20391;-79
2022/04/10 04:19:58;;;;;;;4.50;3.80;;;;;;;5.46;70.61;100783.25;5078853;28;20412;-79
2022/04/10 04:22:23;;;;;;;4.30;3.90;;;;;;;5.51;70.67;100788.00;5085734;28;20402;-79
2022/04/10 04:24:49;;;;;;;5.78;4.03;;;;;;;5.49;70.34;100798.97;5094327;28;20422;-79
2022/04/10 04:27:14;;;;;;;4.80;3.77;;;;;;;5.41;70.56;100796.47;5087700;28;20461;-79
2022/04/10 04:29:39;;;;;;;6.30;4.00;;;;;;;5.44;70.46;100798.75;5075480;28;20384;-79
2022/04/10 04:32:06;;;;;;;5.40;4.40;;;;;;;5.30;71.00;100804.31;5086187;28;20407;-80
2022/04/10 04:34:31;;;;;;;6.25;4.13;;;;;;;5.31;71.03;100806.78;5091294;28;20410;-79
2022/04/10 04:36:56;;;;;;;6.55;4.75;;;;;;;5.16;71.11;100804.25;5089245;28;20388;-79
2022/04/10 04:39:22;;;;;;;5.60;4.70;;;;;;;5.23;71.20;100807.81;5079049;28;20406;-79
2022/04/10 04:41:48;;;;;;;6.27;5.27;;;;;;;5.30;70.79;100802.44;5089180;28;20417;-79
2022/04/10 04:44:13;;;;;;;5.68;4.53;;;;;;;5.16;71.08;100809.63;5093832;28;20409;-79
2022/04/10 04:46:38;;;;;;;6.77;4.73;;;;;;;5.13;71.17;100815.41;5087976;28;20382;-78
2022/04/10 04:49:04;;;;;;;6.67;5.33;;;;;;;5.12;71.40;100812.91;5084591;28;20399;-79
2022/04/10 04:51:34;;;;;;;9.48;4.85;;;;;;;5.12;71.38;100820.97;5091070;28;20519;-79
2022/04/10 04:54:00;;;;;;;6.70;5.10;;;;;;;5.05;71.78;100820.13;5081274;28;20474;-79
2022/04/10 04:56:26;;;;;;;6.63;5.07;;;;;;;5.03;72.12;100823.03;5096862;28;20428;-79
2022/04/10 04:58:51;;;;;;;7.73;5.20;;;;;;;5.11;71.71;100828.19;5085431;28;20875;-79
2022/04/10 05:01:16;;;;;;;5.30;4.80;;;;;;;5.10;72.00;100834.59;5087828;28;20414;-79
2022/04/10 05:03:41;;;;;;;5.83;5.23;;;;;;;5.03;72.08;100833.75;5076365;28;20412;-80
2022/04/10 05:06:07;;;;;;;7.87;6.20;;;;;;;5.09;71.72;100832.97;5084805;28;20486;-80
2022/04/10 05:08:32;;;;;;;7.57;5.83;;;;;;;5.21;71.72;100833.19;5076559;28;20414;-78
2022/04/10 05:10:59;;;;;;;9.00;5.23;;;;;;;5.36;71.31;100825.00;5091404;28;20719;-80
2022/04/10 05:13:24;;;;;;;5.05;4.55;;;;;;;5.42;70.52;100822.31;5093708;28;20512;-80
2022/04/10 05:15:50;;;;;;;8.97;4.80;;;;;;;5.41;70.25;100815.28;5082432;28;20403;-79
2022/04/10 05:18:17;;;;;;;7.43;6.10;;;;;;;5.39;70.29;100824.59;5087069;28;20426;-80
2022/04/10 05:20:42;;;;;;;6.78;5.95;;;;;;;5.43;70.69;100826.69;5085240;28;20394;-79
2022/04/10 05:23:08;;;;;;;8.33;5.93;;;;;;;5.52;70.35;100836.22;5082088;28;20867;-81
2022/04/10 05:25:35;;;;;;;8.57;6.63;;;;;;;5.59;70.13;100837.06;5092161;28;20489;-82
2022/04/10 05:28:01;;;;;;;7.55;5.43;;;;;;;5.58;70.60;100840.78;5089462;28;20413;-83
2022/04/10 05:30:26;;;;;;;13.47;7.97;;;;;;;5.61;70.60;100847.59;5083037;28;20482;-85
2022/04/10 05:32:51;;;;;;;18.43;9.50;;;;;;;5.59;70.60;100855.88;5088355;28;20410;-85
2022/04/10 05:35:17;;;;;;;12.73;6.40;;;;;;;5.66;70.11;100862.06;5086318;28;20873;-78
2022/04/10 05:37:42;;;;;;;19.43;8.97;;;;;;;5.64;70.31;100858.78;5087647;28;20406;-80
2022/04/10 05:40:08;;;;;;;6.25;4.75;;;;;;;5.76;69.89;100862.50;5085470;28;20513;-80
2022/04/10 05:42:37;;;;;;;8.25;5.82;;;;;;;5.90;69.75;100862.56;5085590;28;20394;-81
2022/04/10 05:45:03;;;;;;;6.50;4.30;;;;;;;5.93;69.42;100870.25;5085378;28;20392;-82
2022/04/10 05:47:29;;;;;;;9.68;5.40;;;;;;;5.80;69.84;100871.00;5079733;28;20399;-83
2022/04/10 05:49:54;;;;;;;5.78;4.82;;;;;;;5.86;69.81;100872.91;5089543;28;20484;-80
2022/04/10 05:52:20;;;;;;;5.20;4.63;;;;;;;5.93;69.50;100884.50;5079107;28;20413;-81
2022/04/10 05:54:45;;;;;;;5.97;4.90;;;;;;;6.00;68.92;100884.53;5077578;28;20414;-80
2022/04/10 05:57:10;;;;;;;7.03;5.67;;;;;;;5.96;69.40;100889.47;5089645;28;20558;-80
2022/04/10 05:59:36;;;;;;;6.50;5.47;;;;;;;5.94;68.88;100893.41;5075811;28;20412;-81
2022/04/10 06:02:01;;;;;;;6.30;5.05;;;;;;;5.93;69.38;100889.91;5083597;28;20411;-82
2022/04/10 06:04:26;;;;;;;8.13;5.90;;;;;;;6.10;69.27;100895.72;5084260;28;20432;-83
2022/04/10 06:06:51;;;;;;;8.80;6.30;;;;;;;6.09;68.95;100897.56;5085356;28;20493;-82
2022/04/10 06:09:17;;;;;;;8.70;5.77;;;;;;;6.18;69.16;100890.16;5092028;28;20840;-83
2022/04/10 06:11:42;;;;;;;6.20;5.60;;;;;;;6.19;68.90;100903.38;5087423;28;20398;-80
2022/04/10 06:14:07;;;;;;;9.57;7.93;;;;;;;6.26;68.86;100908.78;5079905;28;20486;-78
2022/04/10 06:16:33;;;;;;;6.67;5.10;;;;;;;6.29;68.71;100905.66;5078035;28;20461;-80
2022/04/10 06:18:58;;;;;;;7.10;5.00;;;;;;;6.27;68.11;100899.66;5086040;28;20431;-80
2022/04/10 06:21:23;;;;;;;6.63;5.23;;;;;;;6.33;68.05;100898.84;5072475;28;20384;-79
2022/04/10 06:23:49;;;;;;;5.83;4.80;;;;;;;6.40;67.80;100898.84;5084348;28;20394;-80
2022/04/10 06:26:14;;;;;;;10.83;5.93;;;;;;;6.49;67.70;100894.91;5088174;28;20392;-80
2022/04/10 06:28:39;;;;;;;5.90;5.40;;;;;;;6.48;67.80;100894.09;5086094;28;22464;-80
2022/04/10 06:31:04;;;;;;;7.63;5.10;;;;;;;6.59;67.53;100893.44;5081053;28;20422;-79
2022/04/10 06:33:29;;;;;;;7.23;5.03;;;;;;;6.57;67.51;100900.09;5077260;28;20396;-79
2022/04/10 06:35:55;;;;;;;5.80;4.57;;;;;;;6.54;67.06;100904.03;5085902;28;20753;-79
2022/04/10 06:38:20;;;;;;;6.60;4.93;;;;;;;6.41;67.67;100908.59;5074550;28;20395;-80
2022/04/10 06:40:47;;;;;;;6.63;4.67;;;;;;;6.45;67.02;100909.84;5077656;28;20390;-80
2022/04/10 06:43:13;;;;;;;6.87;4.73;;;;;;;6.65;66.37;100907.97;5082839;28;20448;-80
2022/04/10 06:45:38;;;;;;;6.67;5.13;;;;;;;6.64;66.30;100906.31;5085743;28;20402;-80
2022/04/10 06:48:06;;;;;;;6.47;5.17;;;;;;;6.72;66.34;100914.16;5072797;28;20467;-80
2022/04/10 06:50:31;;;;;;;10.20;5.47;;;;;;;6.72;66.41;100911.47;5087748;28;20388;-80
2022/04/10 06:52:56;;;;;;;6.45;4.63;;;;;;;6.90;65.21;100921.59;5079624;28;20539;-80
2022/04/10 06:55:22;;;;;;;6.23;4.80;;;;;;;6.87;65.31;100916.63;5079769;28;20533;-80
2022/04/10 06:57:47;;;;;;;8.23;5.83;;;;;;;6.86;65.16;100923.88;5071855;28;20491;-80
2022/04/10 07:00:13;;;;;;;7.37;4.53;;;;;;;6.60;65.97;100922.06;5090408;28;20386;-80
2022/04/10 07:02:38;;;;;;;5.10;4.53;;;;;;;6.75;66.12;100928.03;5079548;28;20471;-80
2022/04/10 07:05:05;;;;;;;5.13;4.00;;;;;;;7.00;65.67;100922.84;5076731;28;20566;-79
2022/04/10 07:07:30;;;;;;;7.07;4.50;;;;;;;7.26;65.10;100925.47;5073684;28;20418;-79
2022/04/10 07:09:55;;;;;;;5.80;4.87;;;;;;;7.49;63.82;100933.06;5075761;28;20411;-80
2022/04/10 07:12:21;;;;;;;9.63;5.80;;;;;;;7.58;63.19;100923.69;5077904;28;20398;-80
2022/04/10 07:14:46;;;;;;;5.10;4.60;;;;;;;7.37;63.91;100917.75;5087009;28;20434;-80
2022/04/10 07:17:12;;;;;;;5.03;4.60;;;;;;;7.30;63.46;100925.88;5083334;28;20413;-80
2022/04/10 07:19:37;;;;;;;6.85;4.72;;;;;;;7.23;63.89;100925.06;5088211;28;20768;-78
2022/04/10 07:24:47;;;;;;;7.60;4.35;;;;;;;7.29;64.00;100933.13;5092208;28;20390;-80
2022/04/10 07:27:12;;;;;;;6.97;4.50;;;;;;;7.35;64.18;100926.06;5088670;28;20418;-79
2022/04/10 07:29:37;;;;;;;5.53;4.23;;;;;;;7.43;63.02;100923.13;5071964;28;20419;-78
2022/04/10 07:32:05;;;;;;;7.18;4.13;;;;;;;7.32;63.79;100931.88;5072993;28;20399;-79
2022/04/10 07:34:30;;;;;;;4.72;4.30;;;;;;;7.48;63.35;100944.06;5071499;28;20411;-79
2022/04/10 07:36:55;;;;;;;5.10;4.60;;;;;;;7.70;62.89;100945.44;5075835;28;20389;-79
2022/04/10 07:39:20;;;;;;;6.73;4.20;;;;;;;7.96;60.70;100933.69;5089885;28;20388;-79
2022/04/10 07:41:46;;;;;;;5.15;4.10;;;;;;;7.92;61.47;100935.97;5069615;28;20408;-79
2022/04/10 07:44:11;;;;;;;5.53;3.87;;;;;;;7.92;62.37;100932.44;5079148;28;20397;-80
2022/04/10 07:49:20;;;;;;;6.10;4.10;;;;;;;8.33;61.28;100939.06;5071544;28;20379;-79
2022/04/10 07:51:45;;;;;;;5.10;4.37;;;;;;;8.20;61.18;100932.94;5075726;28;20415;-79
2022/04/10 07:54:11;;;;;;;8.30;4.45;;;;;;;8.22;60.84;100938.91;5081920;28;20402;-79
2022/04/10 07:56:36;;;;;;;8.57;4.43;;;;;;;8.48;61.04;100938.75;5076877;28;20805;-79
2022/04/10 07:59:01;;;;;;;6.07;4.30;;;;;;;8.61;60.23;100940.53;5085090;28;20414;-79
2022/04/10 08:01:27;;;;;;;3.90;3.60;;;;;;;8.74;59.22;100946.66;5090628;28;21102;-79
2022/04/10 08:03:53;;;;;;;5.40;3.73;;;;;;;8.92;58.53;100942.34;5083452;28;20395;-79
2022/04/10 08:06:19;;;;;;;3.75;3.53;;;;;;;9.04;58.75;100948.66;5081948;28;20433;-79
2022/04/10 08:08:44;;;;;;;4.07;3.75;;;;;;;9.14;58.56;100944.41;5091636;28;20399;-79
2022/04/10 08:11:10;;;;;;;6.73;3.63;;;;;;;9.15;56.99;100939.84;5079708;28;20489;-79
2022/04/10 08:13:35;;;;;;;4.30;3.67;;;;;;;9.15;58.16;100956.06;5086610;28;20921;-79
2022/04/10 08:16:01;;;;;;;4.43;4.03;;;;;;;9.23;58.53;100951.16;5075566;28;20413;-79
2022/04/10 08:18:27;;;;;;;4.47;3.67;;;;;;;8.94;58.66;100949.19;5086948;28;20407;-79
2022/04/10 08:20:52;;;;;;;4.13;3.47;;;;;;;8.74;58.87;100956.63;5088598;28;20449;-79
2022/04/10 08:23:18;;;;;;;5.60;3.50;;;;;;;8.65;59.62;100949.84;5082339;28;20439;-79
2022/04/10 08:25:43;;;;;;;7.30;4.73;;;;;;;9.01;58.56;100958.06;5083786;28;20398;-79
2022/04/10 08:28:09;;;;;;;4.27;3.87;;;;;;;9.17;58.73;100965.59;5088576;28;20406;-79
2022/04/10 08:30:34;;;;;;;4.07;3.70;;;;;;;9.46;58.35;100963.19;5075800;28;20977;-78
2022/04/10 08:32:59;;;;;;;4.27;3.87;;;;;;;9.41;57.58;100961.19;5079268;28;20398;-79
2022/04/10 08:35:25;;;;;;;4.23;3.10;;;;;;;9.50;55.51;100956.28;5078811;28;20419;-79
2022/04/10 08:37:51;;;;;;;6.47;3.43;;;;;;;9.78;54.76;100965.50;5073778;28;20408;-78
2022/04/10 08:40:16;;;;;;;4.90;3.78;;;;;;;9.86;55.93;100967.09;5090724;28;20425;-79
2022/04/10 08:42:42;;;;;;;5.15;3.33;;;;;;;9.96;56.27;100972.78;5079655;28;20426;-79
2022/04/10 08:45:08;;;;;;;6.00;4.80;;;;;;;10.05;55.27;100973.28;5085741;28;20392;-79
2022/04/10 08:47:34;;;;;;;4.63;3.50;;;;;;;10.00;55.63;100974.00;5087619;28;20390;-79
2022/04/10 08:50:01;;;;;;;5.80;3.88;;;;;;;10.13;54.44;100978.41;5077566;28;20407;-79
2022/04/10 08:52:27;;;;;;;5.40;3.65;;;;;;;10.50;53.70;100982.69;5089167;28;20419;-80
2022/04/10 08:54:52;;;;;;;4.40;4.00;;;;;;;10.64;53.97;100981.41;5074329;28;20450;-80
2022/04/10 08:57:18;;;;;;;5.20;3.83;;;;;;;10.39;54.59;100983.47;5086446;28;20476;-81
2022/04/10 08:59:44;;;;;;;3.33;3.10;;;;;;;10.57;53.16;100977.19;5078440;28;20456;-81
2022/04/10 09:02:11;;;;;;;5.07;3.60;;;;;;;10.56;53.92;100981.75;5089378;28;20755;-81
2022/04/10 09:04:40;;;;;;;3.97;3.53;;;;;;;10.58;54.13;100979.63;5072512;28;20835;-80
2022/04/10 09:07:07;;;;;;;5.43;3.47;;;;;;;11.43;52.38;100982.75;5078415;28;20469;-81
2022/04/10 09:09:34;;;;;;;3.25;2.92;;;;;;;12.51;48.65;100979.25;5079972;28;20410;-80
2022/04/10 09:12:00;;;;;;;4.70;3.55;;;;;;;12.09;47.79;100982.28;5072456;28;20942;-81
2022/04/10 09:14:41;;;;;;;5.85;3.17;;;;;;;11.73;48.92;100983.44;5089247;28;20497;-80
2022/04/10 09:17:18;;;;;;;4.23;3.20;;;;;;;11.42;48.81;100983.84;5080637;28;20402;-80
2022/04/10 09:19:46;;;;;;;3.57;3.27;;;;;;;11.09;50.50;100983.59;5090383;28;20423;-80
2022/04/10 09:22:27;;;;;;;5.10;3.50;;;;;;;11.05;50.96;100982.41;5081047;28;20403;-81
2022/04/10 09:25:16;;;;;;;4.38;3.92;;;;;;;10.86;51.14;100976.28;5081898;28;20724;-80
2022/04/10 09:27:44;;;;;;;7.90;4.90;;;;;;;11.37;50.90;100989.97;5082722;28;20494;-79
2022/04/10 09:30:12;;;;;;;4.45;4.05;;;;;;;11.65;50.02;100993.84;5086060;28;20431;-81
2022/04/10 09:32:49;;;;;;;3.85;3.33;;;;;;;12.34;47.94;100990.94;5085360;28;20398;-81
2022/04/10 09:35:17;;;;;;;6.90;3.45;;;;;;;12.71;46.76;100977.69;5075942;28;20411;-81
2022/04/10 09:37:52;;;;;;;5.07;3.65;;;;;;;12.59;47.61;100984.28;5078443;28;20390;-81
2022/04/10 09:40:30;;;;;;;6.90;3.70;;;;;;;12.20;47.06;100978.69;5083634;28;20455;-80
2022/04/10 09:43:01;;;;;;;3.50;3.20;;;;;;;11.88;48.03;100974.81;5088151;28;20389;-80
2022/04/10 09:45:29;;;;;;;4.97;3.40;;;;;;;11.68;48.66;100974.34;5077091;28;20865;-81
2022/04/10 09:47:54;;;;;;;4.88;3.40;;;;;;;11.82;49.01;100982.00;5085720;28;20491;-80
2022/04/10 09:50:32;;;;;;;4.90;4.23;;;;;;;12.13;48.04;100969.88;5080030;28;20404;-80
2022/04/10 09:52:57;;;;;;;7.93;4.15;;;;;;;11.54;49.25;100981.09;5076555;28;20431;-80
2022/04/10 09:55:37;;;;;;;7.05;3.45;;;;;;;11.37;49.63;100975.56;5083172;28;20416;-80
2022/04/10 09:58:10;;;;;;;9.48;5.47;;;;;;;10.98;50.94;100965.44;5073084;28;20756;-82
2022/04/10 10:00:38;;;;;;;3.47;3.17;;;;;;;10.52;51.36;100972.44;5079677;28;20385;-82
2022/04/10 10:03:04;;;;;;;4.22;3.83;;;;;;;10.63;49.77;100960.81;5088553;28;20396;-80
2022/04/10 10:05:30;;;;;;;4.00;3.67;;;;;;;10.49;50.56;100962.06;5071916;28;20867;-81
2022/04/10 10:07:56;;;;;;;6.18;4.10;;;;;;;10.38;51.83;100958.25;5081937;28;20374;-81
2022/04/10 10:10:22;;;;;;;4.53;4.13;;;;;;;10.56;51.83;100951.13;5076308;28;20468;-81
2022/04/10 10:12:48;;;;;;;5.60;3.22;;;;;;;10.49;50.85;100953.94;5089274;28;20440;-80
2022/04/10 10:15:14;;;;;;;5.78;3.58;;;;;;;10.36;50.89;100960.38;5079210;28;20418;-80
2022/04/10 10:17:40;;;;;;;5.00;3.92;;;;;;;10.17;52.62;100949.84;5083515;28;20457;-81
2022/04/10 10:20:06;;;;;;;4.00;3.63;;;;;;;10.15;52.67;100958.19;5071398;28;20773;-80
2022/04/10 10:22:32;;;;;;;4.32;3.30;;;;;;;10.09;52.70;100959.06;5088756;28;20426;-81
2022/04/10 10:25:07;;;;;;;4.23;3.83;;;;;;;9.94;53.58;100953.25;5077802;28;20911;-80
2022/04/10 10:27:48;;;;;;;4.88;4.20;;;;;;;9.71;54.20;100950.44;5079698;28;20906;-81
2022/04/10 10:30:37;;;;;;;5.57;3.60;;;;;;;9.68;54.93;100953.59;5079198;28;20835;-81
2022/04/10 10:33:22;;;;;;;5.97;4.25;;;;;;;9.75;56.02;100948.91;5079167;28;20424;-81
2022/04/10 10:35:50;;;;;;;6.90;4.20;;;;;;;9.92;55.23;100949.94;5075537;28;20442;-80
2022/04/10 10:38:26;;;;;;;4.10;3.70;;;;;;;10.06;56.06;100948.72;5088671;28;20390;-80
2022/04/10 10:41:08;;;;;;;4.65;3.60;;;;;;;10.14;56.02;100947.59;5071602;28;21508;-80
2022/04/10 10:43:34;;;;;;;4.57;3.63;;;;;;;10.10;55.89;100957.19;5085150;28;20402;-80
2022/04/10 10:45:59;;;;;;;5.35;3.55;;;;;;;10.38;54.92;100943.88;5086025;28;20899;-80
2022/04/10 10:48:38;;;;;;;4.43;3.80;;;;;;;10.71;53.24;100935.22;5075730;28;20394;-78
2022/04/10 10:51:10;;;;;;;5.95;3.92;;;;;;;11.31;50.80;100943.97;5080519;28;20408;-79
2022/04/10 10:53:43;;;;;;;16.83;14.90;;;;;;;12.11;47.99;100930.44;5074138;28;20410;-80
2022/04/10 10:56:34;;;;;;;8.57;5.50;;;;;;;16.32;41.90;100925.25;5088681;28;20457;-81
2022/04/10 10:59:20;;;;;;;3.77;3.47;;;;;;;15.81;37.60;100923.47;5080925;28;20440;-81
2022/04/10 11:01:52;;;;;;;9.60;6.93;;;;;;;14.15;41.96;100926.63;5074424;28;20898;-81
2022/04/10 11:04:20;;;;;;;4.55;3.90;;;;;;;12.94;43.71;100933.22;5083842;28;20407;-81
2022/04/10 11:06:47;;;;;;;4.20;3.67;;;;;;;12.52;44.96;100926.53;5074352;28;20403;-81
2022/04/10 11:09:19;;;;;;;5.57;5.07;;;;;;;12.13;47.16;100923.66;5072591;28;20395;-81
2022/04/10 11:11:45;;;;;;;4.85;4.40;;;;;;;11.90;48.04;100926.50;5088041;28;20397;-81
2022/04/10 11:14:34;;;;;;;5.28;4.78;;;;;;;11.65;48.86;100917.81;5075873;28;20795;-81
2022/04/10 11:17:15;;;;;;;5.60;3.70;;;;;;;11.90;48.78;100918.34;5079315;28;20902;-81
2022/04/10 11:20:02;;;;;;;4.32;3.85;;;;;;;12.02;48.22;100908.25;5088104;28;20390;-81
2022/04/10 11:22:50;;;;;;;3.63;3.25;;;;;;;11.94;45.61;100914.91;5079231;28;20424;-81
2022/04/10 11:25:18;;;;;;;10.18;6.63;;;;;;;11.46;49.05;100914.44;5076245;28;20411;-80
2022/04/10 11:27:51;;;;;;;6.97;4.28;;;;;;;11.18;50.27;100915.19;5084080;28;20412;-81
2022/04/10 11:30:29;;;;;;;4.47;3.28;;;;;;;11.07;49.26;100921.44;5080320;28;20426;-80
2022/04/10 11:33:03;;;;;;;8.07;4.93;;;;;;;10.76;52.43;100925.34;5076836;28;20466;-81
2022/04/10 11:35:30;;;;;;;5.63;4.07;;;;;;;10.69;54.58;100921.09;5075282;28;20542;-80
2022/04/10 11:37:58;;;;;;;8.25;4.13;;;;;;;10.61;57.32;100922.25;5078361;28;20469;-80
2022/04/10 11:40:27;;;;;;;5.53;4.40;;;;;;;10.30;56.97;100919.84;5079243;28;20918;-80